sensor_id;sensor_type;location;lat;lon;timestamp;pressure;altitude;pressure_sealevel;temperature;humidity
49122;BME280;35529;44.342;25.944;2023-12-07T00:00:43;100671.09;;;3.73;100.00
49122;BME280;35529;44.342;25.944;2023-12-07T00:03:09;100666.94;;;3.70;100.00
49122;BME280;35529;44.342;25.944;2023-12-07T00:05:35;100673.00;;;3.71;100.00
49122;BME280;35529;44.342;25.944;2023-12-07T00:08:02;100673.16;;;3.69;100.00
49122;BME280;35529;44.342;25.944;2023-12-07T00:10:28;100671.09;;;3.73;100.00
49122;BME280;35529;44.342;25.944;2023-12-07T00:12:54;100684.50;;;3.69;100.00
49122;BME280;35529;44.342;25.944;2023-12-07T00:15:21;100672.22;;;3.60;100.00
49122;BME280;35529;44.342;25.944;2023-12-07T00:17:47;100682.22;;;3.57;100.00
49122;BME280;35529;44.342;25.944;2023-12-07T00:20:13;100673.22;;;3.59;100.00
49122;BME280;35529;44.342;25.944;2023-12-07T00:22:40;100678.88;;;3.64;100.00
49122;BME280;35529;44.342;25.944;2023-12-07T00:25:07;100678.88;;;3.64;100.00
49122;BME280;35529;44.342;25.944;2023-12-07T00:27:33;100684.41;;;3.61;100.00
49122;BME280;35529;44.342;25.944;2023-12-07T00:29:59;100686.78;;;3.55;100.00
49122;BME280;35529;44.342;25.944;2023-12-07T00:32:26;100692.19;;;3.53;100.00
49122;BME280;35529;44.342;25.944;2023-12-07T00:34:53;100691.63;;;3.49;100.00
49122;BME280;35529;44.342;25.944;2023-12-07T00:37:19;100698.84;;;3.47;100.00
49122;BME280;35529;44.342;25.944;2023-12-07T00:39:45;100688.88;;;3.51;100.00
49122;BME280;35529;44.342;25.944;2023-12-07T00:42:12;100695.63;;;3.53;100.00
49122;BME280;35529;44.342;25.944;2023-12-07T00:44:39;100693.53;;;3.57;100.00
49122;BME280;35529;44.342;25.944;2023-12-07T00:47:05;100708.72;;;3.63;100.00
49122;BME280;35529;44.342;25.944;2023-12-07T00:49:31;100697.81;;;3.58;100.00
49122;BME280;35529;44.342;25.944;2023-12-07T00:51:58;100693.13;;;3.52;100.00
49122;BME280;35529;44.342;25.944;2023-12-07T00:54:24;100696.38;;;3.46;100.00
49122;BME280;35529;44.342;25.944;2023-12-07T00:56:50;100707.97;;;3.43;100.00
49122;BME280;35529;44.342;25.944;2023-12-07T00:59:17;100707.72;;;3.37;100.00
49122;BME280;35529;44.342;25.944;2023-12-07T01:01:43;100702.47;;;3.37;100.00
49122;BME280;35529;44.342;25.944;2023-12-07T01:04:09;100706.06;;;3.35;100.00
49122;BME280;35529;44.342;25.944;2023-12-07T01:06:36;100710.63;;;3.33;100.00
49122;BME280;35529;44.342;25.944;2023-12-07T01:09:03;100708.13;;;3.32;100.00
49122;BME280;35529;44.342;25.944;2023-12-07T01:11:29;100707.44;;;3.40;100.00
49122;BME280;35529;44.342;25.944;2023-12-07T01:13:56;100707.97;;;3.43;100.00
49122;BME280;35529;44.342;25.944;2023-12-07T01:16:22;100709.25;;;3.39;100.00
49122;BME280;35529;44.342;25.944;2023-12-07T01:18:48;100703.28;;;3.37;100.00
49122;BME280;35529;44.342;25.944;2023-12-07T01:21:14;100711.06;;;3.29;100.00
49122;BME280;35529;44.342;25.944;2023-12-07T01:23:40;100710.91;;;3.30;100.00
49122;BME280;35529;44.342;25.944;2023-12-07T01:26:07;100711.75;;;3.31;100.00
49122;BME280;35529;44.342;25.944;2023-12-07T01:28:33;100715.75;;;3.25;100.00
49122;BME280;35529;44.342;25.944;2023-12-07T01:30:59;100714.81;;;3.16;100.00
49122;BME280;35529;44.342;25.944;2023-12-07T01:33:26;100723.22;;;3.20;100.00
49122;BME280;35529;44.342;25.944;2023-12-07T01:35:52;100716.19;;;3.21;100.00
49122;BME280;35529;44.342;25.944;2023-12-07T01:38:18;100699.91;;;3.17;100.00
49122;BME280;35529;44.342;25.944;2023-12-07T01:40:45;100712.72;;;3.20;100.00
49122;BME280;35529;44.342;25.944;2023-12-07T01:43:11;100700.59;;;3.19;100.00
49122;BME280;35529;44.342;25.944;2023-12-07T01:45:37;100703.63;;;3.24;100.00
49122;BME280;35529;44.342;25.944;2023-12-07T01:48:03;100696.72;;;3.23;100.00
49122;BME280;35529;44.342;25.944;2023-12-07T01:50:30;100701.41;;;3.19;100.00
49122;BME280;35529;44.342;25.944;2023-12-07T01:53:00;100702.22;;;3.20;100.00
49122;BME280;35529;44.342;25.944;2023-12-07T01:55:27;100697.28;;;3.17;100.00
49122;BME280;35529;44.342;25.944;2023-12-07T01:57:53;100696.06;;;3.11;100.00
49122;BME280;35529;44.342;25.944;2023-12-07T02:00:19;100693.72;;;3.08;100.00
49122;BME280;35529;44.342;25.944;2023-12-07T02:02:46;100708.34;;;3.11;100.00
49122;BME280;35529;44.342;25.944;2023-12-07T02:05:13;100702.25;;;3.10;100.00
49122;BME280;35529;44.342;25.944;2023-12-07T02:07:40;100704.75;;;3.12;100.00
49122;BME280;35529;44.342;25.944;2023-12-07T02:10:07;100715.53;;;3.09;100.00
49122;BME280;35529;44.342;25.944;2023-12-07T02:12:33;100718.72;;;3.02;100.00
49122;BME280;35529;44.342;25.944;2023-12-07T02:15:00;100713.06;;;2.88;100.00
49122;BME280;35529;44.342;25.944;2023-12-07T02:17:46;100713.78;;;2.90;100.00
49122;BME280;35529;44.342;25.944;2023-12-07T02:20:26;100721.91;;;2.87;100.00
49122;BME280;35529;44.342;25.944;2023-12-07T02:22:55;100722.75;;;2.87;100.00
49122;BME280;35529;44.342;25.944;2023-12-07T02:28:06;100719.16;;;2.88;100.00
49122;BME280;35529;44.342;25.944;2023-12-07T02:30:32;100721.09;;;2.86;100.00
49122;BME280;35529;44.342;25.944;2023-12-07T02:32:58;100719.03;;;2.90;100.00
49122;BME280;35529;44.342;25.944;2023-12-07T02:35:25;100716.66;;;2.96;100.00
49122;BME280;35529;44.342;25.944;2023-12-07T02:37:51;100721.63;;;2.99;100.00
49122;BME280;35529;44.342;25.944;2023-12-07T02:40:18;100718.84;;;3.01;100.00
49122;BME280;35529;44.342;25.944;2023-12-07T02:42:46;100723.00;;;3.04;100.00
49122;BME280;35529;44.342;25.944;2023-12-07T02:45:12;100727.28;;;3.05;100.00
49122;BME280;35529;44.342;25.944;2023-12-07T02:47:39;100723.00;;;3.04;100.00
49122;BME280;35529;44.342;25.944;2023-12-07T02:50:06;100721.47;;;3.01;100.00
49122;BME280;35529;44.342;25.944;2023-12-07T02:52:32;100728.81;;;2.97;100.00
49122;BME280;35529;44.342;25.944;2023-12-07T02:54:59;100730.19;;;3.01;100.00
49122;BME280;35529;44.342;25.944;2023-12-07T02:57:25;100729.91;;;3.05;100.00
49122;BME280;35529;44.342;25.944;2023-12-07T02:59:51;100727.16;;;2.96;100.00
49122;BME280;35529;44.342;25.944;2023-12-07T03:02:17;100734.63;;;2.91;100.00
49122;BME280;35529;44.342;25.944;2023-12-07T03:04:43;100734.34;;;2.84;100.00
49122;BME280;35529;44.342;25.944;2023-12-07T03:07:09;100743.47;;;2.80;100.00
49122;BME280;35529;44.342;25.944;2023-12-07T03:09:36;100739.88;;;2.81;100.00
49122;BME280;35529;44.342;25.944;2023-12-07T03:12:02;100740.97;;;2.79;100.00
49122;BME280;35529;44.342;25.944;2023-12-07T03:14:28;100739.88;;;2.81;100.00
49122;BME280;35529;44.342;25.944;2023-12-07T03:16:54;100744.28;;;2.91;100.00
49122;BME280;35529;44.342;25.944;2023-12-07T03:19:20;100746.47;;;2.95;100.00
49122;BME280;35529;44.342;25.944;2023-12-07T03:21:47;100733.25;;;2.87;100.00
49122;BME280;35529;44.342;25.944;2023-12-07T03:24:13;100747.16;;;2.88;100.00
49122;BME280;35529;44.342;25.944;2023-12-07T03:26:39;100737.50;;;2.78;100.00
49122;BME280;35529;44.342;25.944;2023-12-07T03:29:05;100748.44;;;2.74;100.00
49122;BME280;35529;44.342;25.944;2023-12-07T03:31:32;100751.72;;;2.76;100.00
49122;BME280;35529;44.342;25.944;2023-12-07T03:33:58;100745.09;;;2.72;100.00
49122;BME280;35529;44.342;25.944;2023-12-07T03:36:27;100752.44;;;2.68;100.00
49122;BME280;35529;44.342;25.944;2023-12-07T03:38:53;100750.34;;;2.62;100.00
49122;BME280;35529;44.342;25.944;2023-12-07T03:41:19;100750.91;;;2.56;100.00
49122;BME280;35529;44.342;25.944;2023-12-07T03:43:45;100755.19;;;2.57;100.00
49122;BME280;35529;44.342;25.944;2023-12-07T03:46:11;100747.03;;;2.50;100.00
49122;BME280;35529;44.342;25.944;2023-12-07T03:48:37;100749.66;;;2.50;100.00
49122;BME280;35529;44.342;25.944;2023-12-07T03:51:04;100746.06;;;2.51;100.00
49122;BME280;35529;44.342;25.944;2023-12-07T03:53:30;100742.34;;;2.54;100.00
49122;BME280;35529;44.342;25.944;2023-12-07T03:55:56;100745.38;;;2.49;100.00
49122;BME280;35529;44.342;25.944;2023-12-07T03:58:23;100745.13;;;2.52;100.00
49122;BME280;35529;44.342;25.944;2023-12-07T04:00:49;100742.06;;;2.47;100.00
49122;BME280;35529;44.342;25.944;2023-12-07T04:03:15;100741.50;;;2.53;100.00
49122;BME280;35529;44.342;25.944;2023-12-07T04:05:41;100742.22;;;2.55;100.00
49122;BME280;35529;44.342;25.944;2023-12-07T04:08:07;100746.50;;;2.56;100.00
49122;BME280;35529;44.342;25.944;2023-12-07T04:10:33;100743.75;;;2.58;100.00
49122;BME280;35529;44.342;25.944;2023-12-07T04:12:59;100751.88;;;2.55;100.00
49122;BME280;35529;44.342;25.944;2023-12-07T04:15:26;100748.69;;;2.51;100.00
49122;BME280;35529;44.342;25.944;2023-12-07T04:17:52;100746.50;;;2.56;100.00
49122;BME280;35529;44.342;25.944;2023-12-07T04:20:18;100749.53;;;2.61;100.00
49122;BME280;35529;44.342;25.944;2023-12-07T04:22:44;100744.97;;;2.63;100.00
49122;BME280;35529;44.342;25.944;2023-12-07T04:25:11;100753.97;;;2.71;100.00
49122;BME280;35529;44.342;25.944;2023-12-07T04:27:37;100756.03;;;2.67;100.00
49122;BME280;35529;44.342;25.944;2023-12-07T04:30:03;100755.06;;;2.68;100.00
49122;BME280;35529;44.342;25.944;2023-12-07T04:32:29;100753.53;;;2.65;100.00
49122;BME280;35529;44.342;25.944;2023-12-07T04:34:56;100748.28;;;2.65;100.00
49122;BME280;35529;44.342;25.944;2023-12-07T04:37:22;100755.88;;;2.59;100.00
49122;BME280;35529;44.342;25.944;2023-12-07T04:39:48;100748.13;;;2.57;100.00
49122;BME280;35529;44.342;25.944;2023-12-07T04:42:14;100754.91;;;2.60;100.00
49122;BME280;35529;44.342;25.944;2023-12-07T04:44:40;100747.88;;;2.60;100.00
49122;BME280;35529;44.342;25.944;2023-12-07T04:47:06;100767.47;;;2.56;100.00
49122;BME280;35529;44.342;25.944;2023-12-07T04:49:32;100754.22;;;2.58;100.00
49122;BME280;35529;44.342;25.944;2023-12-07T04:51:58;100768.56;;;2.63;100.00
49122;BME280;35529;44.342;25.944;2023-12-07T04:54:25;100772.28;;;2.61;100.00
49122;BME280;35529;44.342;25.944;2023-12-07T04:56:53;100781.00;;;2.61;100.00
49122;BME280;35529;44.342;25.944;2023-12-07T04:59:20;100775.75;;;2.61;100.00
49122;BME280;35529;44.342;25.944;2023-12-07T05:01:47;100782.53;;;2.64;100.00
49122;BME280;35529;44.342;25.944;2023-12-07T05:04:13;100779.34;;;2.60;100.00
49122;BME280;35529;44.342;25.944;2023-12-07T05:06:39;100782.38;;;2.65;100.00
49122;BME280;35529;44.342;25.944;2023-12-07T05:09:05;100793.00;;;2.64;100.00
49122;BME280;35529;44.342;25.944;2023-12-07T05:11:35;100795.88;;;2.61;100.00
49122;BME280;35529;44.342;25.944;2023-12-07T05:14:02;100792.59;;;2.59;100.00
49122;BME280;35529;44.342;25.944;2023-12-07T05:16:29;100792.59;;;2.59;100.00
49122;BME280;35529;44.342;25.944;2023-12-07T05:18:55;100788.44;;;2.56;100.00
49122;BME280;35529;44.342;25.944;2023-12-07T05:21:21;100779.75;;;2.65;100.00
49122;BME280;35529;44.342;25.944;2023-12-07T05:23:47;100797.69;;;2.60;100.00
49122;BME280;35529;44.342;25.944;2023-12-07T05:26:14;100793.94;;;2.53;100.00
49122;BME280;35529;44.342;25.944;2023-12-07T05:28:40;100809.13;;;2.59;100.00
49122;BME280;35529;44.342;25.944;2023-12-07T05:31:06;100802.50;;;2.55;100.00
49122;BME280;35529;44.342;25.944;2023-12-07T05:33:32;100791.31;;;2.53;100.00
49122;BME280;35529;44.342;25.944;2023-12-07T05:35:59;100805.78;;;2.47;100.00
49122;BME280;35529;44.342;25.944;2023-12-07T05:38:26;100812.41;;;2.51;100.00
49122;BME280;35529;44.342;25.944;2023-12-07T05:40:53;100814.06;;;2.43;100.00
49122;BME280;35529;44.342;25.944;2023-12-07T05:43:19;100808.03;;;2.52;100.00
49122;BME280;35529;44.342;25.944;2023-12-07T05:45:45;100817.28;;;2.56;100.00
49122;BME280;35529;44.342;25.944;2023-12-07T05:48:11;100819.91;;;2.56;100.00
49122;BME280;35529;44.342;25.944;2023-12-07T05:50:37;100825.69;;;2.60;100.00
49122;BME280;35529;44.342;25.944;2023-12-07T05:53:06;100818.25;;;2.65;100.00
49122;BME280;35529;44.342;25.944;2023-12-07T05:55:32;100826.78;;;2.57;100.00
49122;BME280;35529;44.342;25.944;2023-12-07T05:57:59;100825.13;;;2.56;100.00
49122;BME280;35529;44.342;25.944;2023-12-07T06:00:25;100822.53;;;2.56;100.00
49122;BME280;35529;44.342;25.944;2023-12-07T06:02:51;100829.38;;;2.47;100.00
49122;BME280;35529;44.342;25.944;2023-12-07T06:05:17;100829.25;;;2.49;100.00
49122;BME280;35529;44.342;25.944;2023-12-07T06:07:44;100833.09;;;2.45;100.00
49122;BME280;35529;44.342;25.944;2023-12-07T06:10:10;100839.19;;;2.45;100.00
49122;BME280;35529;44.342;25.944;2023-12-07T06:12:36;100838.63;;;2.42;100.00
49122;BME280;35529;44.342;25.944;2023-12-07T06:15:03;100840.28;;;2.43;100.00
49122;BME280;35529;44.342;25.944;2023-12-07T06:17:29;100842.09;;;2.52;100.00
49122;BME280;35529;44.342;25.944;2023-12-07T06:19:55;100833.69;;;2.58;100.00
49122;BME280;35529;44.342;25.944;2023-12-07T06:22:22;100846.66;;;2.60;100.00
49122;BME280;35529;44.342;25.944;2023-12-07T06:24:48;100847.50;;;2.60;100.00
49122;BME280;35529;44.342;25.944;2023-12-07T06:27:14;100844.59;;;2.54;100.00
49122;BME280;35529;44.342;25.944;2023-12-07T06:29:40;100848.16;;;2.53;100.00
49122;BME280;35529;44.342;25.944;2023-12-07T06:32:06;100840.16;;;2.54;100.00
49122;BME280;35529;44.342;25.944;2023-12-07T06:34:32;100845.25;;;2.56;100.00
49122;BME280;35529;44.342;25.944;2023-12-07T06:36:59;100845.53;;;2.53;100.00
49122;BME280;35529;44.342;25.944;2023-12-07T06:39:25;100844.16;;;2.48;100.00
49122;BME280;35529;44.342;25.944;2023-12-07T06:41:51;100849.41;;;2.48;100.00
49122;BME280;35529;44.342;25.944;2023-12-07T06:44:17;100849.97;;;2.52;100.00
49122;BME280;35529;44.342;25.944;2023-12-07T06:46:43;100855.50;;;2.59;100.00
49122;BME280;35529;44.342;25.944;2023-12-07T06:49:10;100850.69;;;2.64;100.00
49122;BME280;35529;44.342;25.944;2023-12-07T06:51:38;100863.66;;;2.65;100.00
49122;BME280;35529;44.342;25.944;2023-12-07T06:54:04;100862.38;;;2.60;100.00
49122;BME280;35529;44.342;25.944;2023-12-07T06:56:31;100861.84;;;2.56;100.00
49122;BME280;35529;44.342;25.944;2023-12-07T06:58:57;100856.31;;;2.59;100.00
49122;BME280;35529;44.342;25.944;2023-12-07T07:01:23;100858.13;;;2.59;100.00
49122;BME280;35529;44.342;25.944;2023-12-07T07:03:50;100855.75;;;2.56;100.00
49122;BME280;35529;44.342;25.944;2023-12-07T07:06:16;100853.97;;;2.66;100.00
49122;BME280;35529;44.342;25.944;2023-12-07T07:08:42;100857.31;;;2.78;100.00
49122;BME280;35529;44.342;25.944;2023-12-07T07:11:14;100851.94;;;2.89;100.00
49122;BME280;35529;44.342;25.944;2023-12-07T07:13:41;100856.06;;;2.82;100.00
49122;BME280;35529;44.342;25.944;2023-12-07T07:16:08;100857.72;;;2.73;100.00
49122;BME280;35529;44.342;25.944;2023-12-07T07:18:34;100861.84;;;2.76;100.00
49122;BME280;35529;44.342;25.944;2023-12-07T07:21:01;100864.47;;;2.76;100.00
49122;BME280;35529;44.342;25.944;2023-12-07T07:23:27;100877.59;;;2.76;100.00
49122;BME280;35529;44.342;25.944;2023-12-07T07:25:53;100871.81;;;2.72;100.00
49122;BME280;35529;44.342;25.944;2023-12-07T07:28:19;100868.63;;;2.68;100.00
49122;BME280;35529;44.342;25.944;2023-12-07T07:30:46;100875.09;;;2.64;100.00
49122;BME280;35529;44.342;25.944;2023-12-07T07:33:15;100881.59;;;2.70;100.00
49122;BME280;35529;44.342;25.944;2023-12-07T07:35:41;100883.69;;;2.76;100.00
49122;BME280;35529;44.342;25.944;2023-12-07T07:38:07;100885.59;;;2.74;100.00
49122;BME280;35529;44.342;25.944;2023-12-07T07:40:34;100886.16;;;2.78;100.00
49122;BME280;35529;44.342;25.944;2023-12-07T07:43:00;100888.94;;;2.86;100.00
49122;BME280;35529;44.342;25.944;2023-12-07T07:45:26;100892.13;;;2.90;100.00
49122;BME280;35529;44.342;25.944;2023-12-07T07:47:52;100892.38;;;2.87;100.00
49122;BME280;35529;44.342;25.944;2023-12-07T07:50:18;100902.63;;;2.90;100.00
49122;BME280;35529;44.342;25.944;2023-12-07T07:52:44;100899.03;;;2.91;100.00
49122;BME280;35529;44.342;25.944;2023-12-07T07:55:11;100897.91;;;2.93;100.00
49122;BME280;35529;44.342;25.944;2023-12-07T07:57:37;100889.78;;;2.96;100.00
49122;BME280;35529;44.342;25.944;2023-12-07T08:00:04;100900.69;;;3.01;100.00
49122;BME280;35529;44.342;25.944;2023-12-07T08:02:34;100897.66;;;2.96;100.00
49122;BME280;35529;44.342;25.944;2023-12-07T08:05:02;100900.81;;;2.90;100.00
49122;BME280;35529;44.342;25.944;2023-12-07T08:07:28;100902.47;;;2.81;100.00
49122;BME280;35529;44.342;25.944;2023-12-07T08:09:54;100899.94;;;2.80;100.00
49122;BME280;35529;44.342;25.944;2023-12-07T08:12:20;100893.34;;;2.85;100.00
49122;BME280;35529;44.342;25.944;2023-12-07T08:14:49;100893.31;;;2.76;100.00
49122;BME280;35529;44.342;25.944;2023-12-07T08:17:15;100903.41;;;2.71;100.00
49122;BME280;35529;44.342;25.944;2023-12-07T08:19:42;100896.94;;;2.75;100.00
49122;BME280;35529;44.342;25.944;2023-12-07T08:22:08;100902.56;;;2.80;100.00
49122;BME280;35529;44.342;25.944;2023-12-07T08:24:34;100892.50;;;2.85;100.00
49122;BME280;35529;44.342;25.944;2023-12-07T08:27:01;100895.28;;;2.83;100.00
49122;BME280;35529;44.342;25.944;2023-12-07T08:29:29;100907.44;;;2.84;100.00
49122;BME280;35529;44.342;25.944;2023-12-07T08:31:55;100914.31;;;2.76;100.00
49122;BME280;35529;44.342;25.944;2023-12-07T08:34:21;100915.69;;;2.80;100.00
49122;BME280;35529;44.342;25.944;2023-12-07T08:36:47;100910.44;;;2.80;100.00
49122;BME280;35529;44.342;25.944;2023-12-07T08:39:14;100914.34;;;2.85;100.00
49122;BME280;35529;44.342;25.944;2023-12-07T08:41:40;100912.41;;;2.88;100.00
49122;BME280;35529;44.342;25.944;2023-12-07T08:44:06;100913.25;;;2.88;100.00
49122;BME280;35529;44.342;25.944;2023-12-07T08:46:32;100917.22;;;2.82;100.00
49122;BME280;35529;44.342;25.944;2023-12-07T08:48:59;100912.91;;;2.72;100.00
49122;BME280;35529;44.342;25.944;2023-12-07T08:51:25;100912.25;;;2.79;100.00
49122;BME280;35529;44.342;25.944;2023-12-07T08:53:51;100901.75;;;2.89;100.00
49122;BME280;35529;44.342;25.944;2023-12-07T08:56:18;100909.38;;;2.92;100.00
49122;BME280;35529;44.342;25.944;2023-12-07T08:58:44;100911.28;;;2.90;100.00
49122;BME280;35529;44.342;25.944;2023-12-07T09:01:10;100903.84;;;2.95;100.00
49122;BME280;35529;44.342;25.944;2023-12-07T09:03:37;100904.41;;;3.09;100.00
49122;BME280;35529;44.342;25.944;2023-12-07T09:06:03;100908.97;;;3.07;100.00
49122;BME280;35529;44.342;25.944;2023-12-07T09:08:31;100909.25;;;3.04;100.00
49122;BME280;35529;44.342;25.944;2023-12-07T09:10:57;100910.47;;;3.09;100.00
49122;BME280;35529;44.342;25.944;2023-12-07T09:13:23;100905.53;;;3.16;100.00
49122;BME280;35529;44.342;25.944;2023-12-07T09:15:49;100913.00;;;3.11;100.00
49122;BME280;35529;44.342;25.944;2023-12-07T09:18:15;100903.72;;;3.07;100.00
49122;BME280;35529;44.342;25.944;2023-12-07T09:20:41;100911.59;;;3.07;100.00
49122;BME280;35529;44.342;25.944;2023-12-07T09:23:13;100903.56;;;2.98;100.00
49122;BME280;35529;44.342;25.944;2023-12-07T09:25:42;100913.53;;;2.95;100.00
49122;BME280;35529;44.342;25.944;2023-12-07T09:28:09;100904.13;;;2.92;100.00
49122;BME280;35529;44.342;25.944;2023-12-07T09:30:35;100907.44;;;2.94;100.00
49122;BME280;35529;44.342;25.944;2023-12-07T09:33:01;100910.47;;;2.99;100.00
49122;BME280;35529;44.342;25.944;2023-12-07T09:35:30;100907.44;;;2.94;100.00
49122;BME280;35529;44.342;25.944;2023-12-07T09:37:57;100896.97;;;3.04;100.00
49122;BME280;35529;44.342;25.944;2023-12-07T09:40:23;100909.09;;;3.05;100.00
49122;BME280;35529;44.342;25.944;2023-12-07T09:42:50;100912.84;;;3.12;100.00
49122;BME280;35529;44.342;25.944;2023-12-07T09:45:17;100903.88;;;3.15;100.00
49122;BME280;35529;44.342;25.944;2023-12-07T09:47:51;100908.84;;;3.18;100.00
49122;BME280;35529;44.342;25.944;2023-12-07T09:50:18;100909.25;;;3.13;100.00
49122;BME280;35529;44.342;25.944;2023-12-07T09:52:45;100906.78;;;3.22;100.00
49122;BME280;35529;44.342;25.944;2023-12-07T09:55:13;100901.81;;;3.38;100.00
49122;BME280;35529;44.342;25.944;2023-12-07T09:57:39;100905.81;;;3.42;100.00
49122;BME280;35529;44.342;25.944;2023-12-07T10:00:05;100897.13;;;3.42;100.00
49122;BME280;35529;44.342;25.944;2023-12-07T10:02:38;100904.84;;;3.43;100.00
49122;BME280;35529;44.342;25.944;2023-12-07T10:05:05;100898.47;;;3.36;100.00
49122;BME280;35529;44.342;25.944;2023-12-07T10:07:32;100897.53;;;3.27;100.00
49122;BME280;35529;44.342;25.944;2023-12-07T10:09:59;100892.97;;;3.29;100.00
49122;BME280;35529;44.342;25.944;2023-12-07T10:12:27;100898.50;;;3.26;100.00
49122;BME280;35529;44.342;25.944;2023-12-07T10:14:54;100893.22;;;3.07;100.00
49122;BME280;35529;44.342;25.944;2023-12-07T10:17:20;100892.25;;;3.08;100.00
49122;BME280;35529;44.342;25.944;2023-12-07T10:19:46;100893.50;;;3.13;100.00
49122;BME280;35529;44.342;25.944;2023-12-07T10:22:15;100900.69;;;3.21;100.00
49122;BME280;35529;44.342;25.944;2023-12-07T10:24:41;100901.78;;;3.18;100.00
49122;BME280;35529;44.342;25.944;2023-12-07T10:27:08;100892.44;;;3.26;100.00
49122;BME280;35529;44.342;25.944;2023-12-07T10:29:35;100898.34;;;3.08;100.00
49122;BME280;35529;44.342;25.944;2023-12-07T10:32:02;100892.84;;;3.01;100.00
49122;BME280;35529;44.342;25.944;2023-12-07T10:34:30;100887.59;;;3.11;100.00
49122;BME280;35529;44.342;25.944;2023-12-07T10:36:57;100893.78;;;3.20;100.00
49122;BME280;35529;44.342;25.944;2023-12-07T10:39:24;100886.47;;;3.24;100.00
49122;BME280;35529;44.342;25.944;2023-12-07T10:41:52;100895.03;;;3.16;100.00
49122;BME280;35529;44.342;25.944;2023-12-07T10:44:22;100894.88;;;3.08;100.00
49122;BME280;35529;44.342;25.944;2023-12-07T10:46:50;100893.78;;;3.10;100.00
49122;BME280;35529;44.342;25.944;2023-12-07T10:49:18;100898.75;;;3.13;100.00
49122;BME280;35529;44.342;25.944;2023-12-07T10:52:03;100898.63;;;3.05;100.00
49122;BME280;35529;44.342;25.944;2023-12-07T10:54:53;100903.03;;;3.14;100.00
49122;BME280;35529;44.342;25.944;2023-12-07T10:57:22;100893.50;;;3.13;100.00
49122;BME280;35529;44.342;25.944;2023-12-07T10:59:48;100896.97;;;3.14;100.00
49122;BME280;35529;44.342;25.944;2023-12-07T11:02:16;100893.94;;;3.09;100.00
49122;BME280;35529;44.342;25.944;2023-12-07T11:04:42;100890.88;;;3.04;100.00
49122;BME280;35529;44.342;25.944;2023-12-07T11:07:10;100885.63;;;2.94;100.00
49122;BME280;35529;44.342;25.944;2023-12-07T11:09:39;100895.84;;;2.87;100.00
49122;BME280;35529;44.342;25.944;2023-12-07T11:12:09;100892.25;;;2.88;100.00
49122;BME280;35529;44.342;25.944;2023-12-07T11:14:37;100885.06;;;2.90;100.00
49122;BME280;35529;44.342;25.944;2023-12-07T11:17:04;100891.97;;;2.91;100.00
49122;BME280;35529;44.342;25.944;2023-12-07T11:22:02;100883.28;;;3.00;100.00
49122;BME280;35529;44.342;25.944;2023-12-07T11:24:28;100885.78;;;3.02;100.00
49122;BME280;35529;44.342;25.944;2023-12-07T11:26:54;100884.94;;;2.92;100.00
49122;BME280;35529;44.342;25.944;2023-12-07T11:29:21;100878.88;;;2.91;100.00
49122;BME280;35529;44.342;25.944;2023-12-07T11:31:51;100878.88;;;2.91;100.00
49122;BME280;35529;44.342;25.944;2023-12-07T11:37:02;100876.50;;;2.78;100.00
49122;BME280;35529;44.342;25.944;2023-12-07T11:39:29;100877.34;;;2.79;100.00
49122;BME280;35529;44.342;25.944;2023-12-07T11:41:55;100873.72;;;2.80;100.00
49122;BME280;35529;44.342;25.944;2023-12-07T11:44:40;100875.25;;;2.73;100.00
49122;BME280;35529;44.342;25.944;2023-12-07T11:47:07;100868.91;;;2.75;100.00
49122;BME280;35529;44.342;25.944;2023-12-07T11:49:34;100874.81;;;2.67;100.00
49122;BME280;35529;44.342;25.944;2023-12-07T11:52:01;100871.50;;;2.65;100.00
49122;BME280;35529;44.342;25.944;2023-12-07T11:54:37;100880.22;;;2.76;100.00
49122;BME280;35529;44.342;25.944;2023-12-07T11:57:03;100869.06;;;2.83;100.00
49122;BME280;35529;44.342;25.944;2023-12-07T11:59:30;100875.69;;;2.88;100.00
49122;BME280;35529;44.342;25.944;2023-12-07T12:01:59;100868.78;;;2.87;100.00
49122;BME280;35529;44.342;25.944;2023-12-07T12:04:25;100873.19;;;2.86;100.00
49122;BME280;35529;44.342;25.944;2023-12-07T12:06:51;100868.38;;;2.81;100.00
49122;BME280;35529;44.342;25.944;2023-12-07T12:09:17;100873.72;;;2.80;100.00
49122;BME280;35529;44.342;25.944;2023-12-07T12:11:46;100867.66;;;2.79;100.00
49122;BME280;35529;44.342;25.944;2023-12-07T12:14:19;100868.91;;;2.85;100.00
49122;BME280;35529;44.342;25.944;2023-12-07T12:16:46;100872.81;;;2.91;100.00
49122;BME280;35529;44.342;25.944;2023-12-07T12:19:13;100877.63;;;2.85;100.00
49122;BME280;35529;44.342;25.944;2023-12-07T12:21:40;100861.03;;;2.85;100.00
49122;BME280;35529;44.342;25.944;2023-12-07T12:24:07;100866.56;;;2.92;100.00
49122;BME280;35529;44.342;25.944;2023-12-07T12:26:34;100866.84;;;2.98;100.00
49122;BME280;35529;44.342;25.944;2023-12-07T12:29:02;100865.22;;;2.97;100.00
49122;BME280;35529;44.342;25.944;2023-12-07T12:31:29;100865.06;;;2.99;100.00
49122;BME280;35529;44.342;25.944;2023-12-07T12:33:55;100862.44;;;2.99;100.00
49122;BME280;35529;44.342;25.944;2023-12-07T12:36:22;100861.88;;;3.05;100.00
49122;BME280;35529;44.342;25.944;2023-12-07T12:38:54;100867.00;;;3.07;100.00
49122;BME280;35529;44.342;25.944;2023-12-07T12:41:22;100868.22;;;3.02;100.00
49122;BME280;35529;44.342;25.944;2023-12-07T12:43:48;100862.84;;;2.94;100.00
49122;BME280;35529;44.342;25.944;2023-12-07T12:46:15;100873.75;;;2.90;100.00